sensor_id;sensor_type;location;lat;lon;timestamp;pressure;altitude;pressure_sealevel;temperature;humidity
74615;BME280;63121;51.458;-0.110;2023-07-20T00:02:05;101481.84;;;23.73;42.46
74615;BME280;63121;51.458;-0.110;2023-07-20T00:04:31;101493.16;;;23.75;42.27
74615;BME280;63121;51.458;-0.110;2023-07-20T00:06:57;101489.38;;;23.81;42.18
74615;BME280;63121;51.458;-0.110;2023-07-20T00:09:22;101493.63;;;23.84;42.67
74615;BME280;63121;51.458;-0.110;2023-07-20T00:11:49;101499.25;;;23.78;42.32
74615;BME280;63121;51.458;-0.110;2023-07-20T00:14:18;101490.59;;;23.58;42.76
74615;BME280;63121;51.458;-0.110;2023-07-20T00:16:47;101494.06;;;23.59;42.98
74615;BME280;63121;51.458;-0.110;2023-07-20T00:19:14;101484.22;;;23.62;43.23
74615;BME280;63121;51.458;-0.110;2023-07-20T00:21:41;101492.38;;;23.58;43.04
74615;BME280;63121;51.458;-0.110;2023-07-20T00:24:07;101482.88;;;23.71;42.70
74615;BME280;63121;51.458;-0.110;2023-07-20T00:26:33;101491.81;;;23.68;42.84
74615;BME280;63121;51.458;-0.110;2023-07-20T00:28:59;101489.16;;;23.68;42.53
74615;BME280;63121;51.458;-0.110;2023-07-20T00:31:24;101483.72;;;23.71;43.09
74615;BME280;63121;51.458;-0.110;2023-07-20T00:33:50;101483.84;;;23.37;43.85
74615;BME280;63121;51.458;-0.110;2023-07-20T00:36:15;101486.53;;;23.35;43.59
74615;BME280;63121;51.458;-0.110;2023-07-20T00:38:42;101480.56;;;23.31;43.67
74615;BME280;63121;51.458;-0.110;2023-07-20T00:41:07;101485.06;;;23.29;43.48
74615;BME280;63121;51.458;-0.110;2023-07-20T00:43:33;101485.81;;;23.16;44.00
74615;BME280;63121;51.458;-0.110;2023-07-20T00:45:58;101483.44;;;23.27;44.24
74615;BME280;63121;51.458;-0.110;2023-07-20T00:48:24;101482.72;;;23.07;45.64
74615;BME280;63121;51.458;-0.110;2023-07-20T00:50:50;101483.56;;;23.08;45.12
74615;BME280;63121;51.458;-0.110;2023-07-20T00:53:15;101485.09;;;22.94;45.79
74615;BME280;63121;51.458;-0.110;2023-07-20T00:55:41;101482.94;;;22.85;45.76
74615;BME280;63121;51.458;-0.110;2023-07-20T00:58:07;101494.75;;;22.77;45.90
74615;BME280;63121;51.458;-0.110;2023-07-20T01:00:33;101488.50;;;22.79;46.10
74615;BME280;63121;51.458;-0.110;2023-07-20T01:02:58;101476.88;;;22.66;46.42
74615;BME280;63121;51.458;-0.110;2023-07-20T01:08:21;101473.00;;;22.73;45.16
74615;BME280;63121;51.458;-0.110;2023-07-20T01:10:59;101469.69;;;22.69;45.20
74615;BME280;63121;51.458;-0.110;2023-07-20T01:13:28;101477.34;;;22.57;44.84
74615;BME280;63121;51.458;-0.110;2023-07-20T01:16:00;101463.53;;;22.51;45.07
74615;BME280;63121;51.458;-0.110;2023-07-20T01:18:26;101464.16;;;22.39;44.36
74615;BME280;63121;51.458;-0.110;2023-07-20T01:20:54;101468.53;;;22.20;44.41
74615;BME280;63121;51.458;-0.110;2023-07-20T01:32:24;101472.91;;;22.02;44.62
74615;BME280;63121;51.458;-0.110;2023-07-20T01:34:52;101472.97;;;22.00;44.52
74615;BME280;63121;51.458;-0.110;2023-07-20T01:37:18;101482.09;;;21.93;44.38
74615;BME280;63121;51.458;-0.110;2023-07-20T01:39:46;101474.56;;;22.23;44.07
74615;BME280;63121;51.458;-0.110;2023-07-20T01:42:12;101476.97;;;22.28;44.30
74615;BME280;63121;51.458;-0.110;2023-07-20T01:44:38;101471.66;;;22.47;44.23
74615;BME280;63121;51.458;-0.110;2023-07-20T01:47:03;101476.38;;;22.40;43.97
74615;BME280;63121;51.458;-0.110;2023-07-20T01:49:29;101466.63;;;22.42;44.47
74615;BME280;63121;51.458;-0.110;2023-07-20T01:51:54;101470.97;;;22.43;44.35
74615;BME280;63121;51.458;-0.110;2023-07-20T01:54:20;101470.75;;;22.48;44.09
74615;BME280;63121;51.458;-0.110;2023-07-20T01:56:46;101470.69;;;22.49;44.73
74615;BME280;63121;51.458;-0.110;2023-07-20T01:59:12;101461.44;;;22.41;44.83
74615;BME280;63121;51.458;-0.110;2023-07-20T02:01:37;101471.34;;;22.17;45.65
74615;BME280;63121;51.458;-0.110;2023-07-20T02:04:02;101454.63;;;22.18;45.18
74615;BME280;63121;51.458;-0.110;2023-07-20T02:06:28;101460.34;;;22.27;45.50
74615;BME280;63121;51.458;-0.110;2023-07-20T02:08:53;101463.75;;;22.29;45.21
74615;BME280;63121;51.458;-0.110;2023-07-20T02:11:19;101467.78;;;22.18;44.82
74615;BME280;63121;51.458;-0.110;2023-07-20T02:13:44;101461.91;;;22.12;44.98
74615;BME280;63121;51.458;-0.110;2023-07-20T02:16:10;101463.44;;;22.36;45.13
74615;BME280;63121;51.458;-0.110;2023-07-20T02:18:36;101459.44;;;22.28;45.24
74615;BME280;63121;51.458;-0.110;2023-07-20T02:21:05;101463.28;;;22.39;45.88
74615;BME280;63121;51.458;-0.110;2023-07-20T02:23:30;101456.78;;;22.09;45.53
74615;BME280;63121;51.458;-0.110;2023-07-20T02:25:55;101458.78;;;22.23;45.61
74615;BME280;63121;51.458;-0.110;2023-07-20T02:28:21;101459.50;;;22.27;45.20
74615;BME280;63121;51.458;-0.110;2023-07-20T02:30:46;101465.13;;;22.18;45.54
74615;BME280;63121;51.458;-0.110;2023-07-20T02:33:11;101464.22;;;22.19;45.13
74615;BME280;63121;51.458;-0.110;2023-07-20T02:35:37;101465.25;;;22.16;45.11
74615;BME280;63121;51.458;-0.110;2023-07-20T02:38:02;101466.16;;;22.15;45.05
74615;BME280;63121;51.458;-0.110;2023-07-20T02:40:28;101463.91;;;22.07;45.29
74615;BME280;63121;51.458;-0.110;2023-07-20T02:42:53;101471.56;;;22.12;45.35
74615;BME280;63121;51.458;-0.110;2023-07-20T02:45:19;101469.28;;;22.04;45.39
74615;BME280;63121;51.458;-0.110;2023-07-20T02:47:44;101458.91;;;22.20;45.02
74615;BME280;63121;51.458;-0.110;2023-07-20T02:50:10;101468.72;;;22.17;45.00
74615;BME280;63121;51.458;-0.110;2023-07-20T02:52:38;101469.78;;;22.12;45.40
74615;BME280;63121;51.458;-0.110;2023-07-20T02:55:04;101473.63;;;22.05;45.80
74615;BME280;63121;51.458;-0.110;2023-07-20T02:57:29;101470.91;;;22.07;45.88
74615;BME280;63121;51.458;-0.110;2023-07-20T02:59:55;101471.34;;;21.98;46.25
74615;BME280;63121;51.458;-0.110;2023-07-20T03:02:20;101470.72;;;22.11;45.76
74615;BME280;63121;51.458;-0.110;2023-07-20T03:04:45;101468.22;;;22.08;45.52
74615;BME280;63121;51.458;-0.110;2023-07-20T03:07:11;101470.22;;;22.03;45.75
74615;BME280;63121;51.458;-0.110;2023-07-20T03:09:36;101469.22;;;22.06;45.93
74615;BME280;63121;51.458;-0.110;2023-07-20T03:12:02;101465.47;;;21.92;46.22
74615;BME280;63121;51.458;-0.110;2023-07-20T03:14:30;101463.47;;;21.79;46.65
74615;BME280;63121;51.458;-0.110;2023-07-20T03:16:55;101471.28;;;21.80;46.67
74615;BME280;63121;51.458;-0.110;2023-07-20T03:19:20;101467.50;;;21.86;45.99
74615;BME280;63121;51.458;-0.110;2023-07-20T03:21:46;101461.75;;;21.78;46.79
74615;BME280;63121;51.458;-0.110;2023-07-20T03:24:11;101460.50;;;21.67;46.40
74615;BME280;63121;51.458;-0.110;2023-07-20T03:26:37;101468.78;;;21.58;46.85
74615;BME280;63121;51.458;-0.110;2023-07-20T03:29:03;101467.56;;;21.46;46.93
74615;BME280;63121;51.458;-0.110;2023-07-20T03:31:28;101462.91;;;21.53;47.08
74615;BME280;63121;51.458;-0.110;2023-07-20T03:33:54;101475.38;;;21.48;47.14
74615;BME280;63121;51.458;-0.110;2023-07-20T03:36:19;101473.69;;;21.47;46.90
74615;BME280;63121;51.458;-0.110;2023-07-20T03:38:45;101469.25;;;21.27;47.38
74615;BME280;63121;51.458;-0.110;2023-07-20T03:41:11;101465.41;;;21.36;47.55
74615;BME280;63121;51.458;-0.110;2023-07-20T03:43:37;101462.31;;;21.05;48.08
74615;BME280;63121;51.458;-0.110;2023-07-20T03:46:02;101466.78;;;21.03;48.04
74615;BME280;63121;51.458;-0.110;2023-07-20T03:48:31;101465.00;;;21.04;47.78
74615;BME280;63121;51.458;-0.110;2023-07-20T03:50:57;101467.19;;;20.94;48.22
74615;BME280;63121;51.458;-0.110;2023-07-20T03:53:23;101472.75;;;21.07;47.91
74615;BME280;63121;51.458;-0.110;2023-07-20T03:55:49;101473.28;;;20.95;47.93
74615;BME280;63121;51.458;-0.110;2023-07-20T03:58:15;101465.34;;;20.96;48.12
74615;BME280;63121;51.458;-0.110;2023-07-20T04:00:48;101467.38;;;21.10;47.52
74615;BME280;63121;51.458;-0.110;2023-07-20T04:03:15;101456.63;;;20.96;48.17
74615;BME280;63121;51.458;-0.110;2023-07-20T04:05:41;101467.78;;;21.01;48.08
74615;BME280;63121;51.458;-0.110;2023-07-20T04:08:07;101463.78;;;20.92;48.23
74615;BME280;63121;51.458;-0.110;2023-07-20T04:10:33;101469.59;;;20.78;48.32
74615;BME280;63121;51.458;-0.110;2023-07-20T04:12:58;101472.31;;;20.77;48.09
74615;BME280;63121;51.458;-0.110;2023-07-20T04:15:23;101469.59;;;20.78;48.35
74615;BME280;63121;51.458;-0.110;2023-07-20T04:17:49;101474.56;;;20.64;48.80
74615;BME280;63121;51.458;-0.110;2023-07-20T04:20:14;101470.72;;;20.73;48.46
74615;BME280;63121;51.458;-0.110;2023-07-20T04:22:39;101465.81;;;20.85;47.82
74615;BME280;63121;51.458;-0.110;2023-07-20T04:25:05;101475.97;;;20.73;48.50
74615;BME280;63121;51.458;-0.110;2023-07-20T04:27:31;101472.34;;;20.75;48.58
74615;BME280;63121;51.458;-0.110;2023-07-20T04:29:58;101477.81;;;20.70;48.71
74615;BME280;63121;51.458;-0.110;2023-07-20T04:32:25;101472.16;;;20.80;48.14
74615;BME280;63121;51.458;-0.110;2023-07-20T04:34:50;101469.69;;;20.77;48.43
74615;BME280;63121;51.458;-0.110;2023-07-20T04:37:16;101467.31;;;20.70;48.53
74615;BME280;63121;51.458;-0.110;2023-07-20T04:39:41;101467.06;;;20.77;48.30
74615;BME280;63121;51.458;-0.110;2023-07-20T04:42:06;101463.94;;;20.67;48.85
74615;BME280;63121;51.458;-0.110;2023-07-20T04:44:32;101469.94;;;20.70;48.77
74615;BME280;63121;51.458;-0.110;2023-07-20T04:46:57;101464.25;;;20.59;49.08
74615;BME280;63121;51.458;-0.110;2023-07-20T04:49:23;101463.41;;;20.59;48.60
74615;BME280;63121;51.458;-0.110;2023-07-20T04:51:48;101470.03;;;20.67;48.33
74615;BME280;63121;51.458;-0.110;2023-07-20T04:54:13;101465.53;;;20.71;48.76
74615;BME280;63121;51.458;-0.110;2023-07-20T04:56:39;101472.28;;;20.55;48.99
74615;BME280;63121;51.458;-0.110;2023-07-20T04:59:04;101467.38;;;20.69;49.00
74615;BME280;63121;51.458;-0.110;2023-07-20T05:01:29;101464.75;;;20.69;48.69
74615;BME280;63121;51.458;-0.110;2023-07-20T05:03:55;101469.66;;;20.55;48.91
74615;BME280;63121;51.458;-0.110;2023-07-20T05:06:20;101467.63;;;20.63;48.41
74615;BME280;63121;51.458;-0.110;2023-07-20T05:08:46;101471.69;;;20.70;48.31
74615;BME280;63121;51.458;-0.110;2023-07-20T05:11:11;101472.34;;;20.53;49.16
74615;BME280;63121;51.458;-0.110;2023-07-20T05:13:37;101474.75;;;20.59;49.93
74615;BME280;63121;51.458;-0.110;2023-07-20T05:16:03;101467.66;;;20.83;48.13
74615;BME280;63121;51.458;-0.110;2023-07-20T05:18:28;101473.28;;;20.95;47.53
74615;BME280;63121;51.458;-0.110;2023-07-20T05:20:53;101465.72;;;20.87;48.13
74615;BME280;63121;51.458;-0.110;2023-07-20T05:23:21;101473.47;;;20.90;47.41
74615;BME280;63121;51.458;-0.110;2023-07-20T05:25:47;101474.81;;;21.00;47.50
74615;BME280;63121;51.458;-0.110;2023-07-20T05:28:12;101481.13;;;20.74;47.67
74615;BME280;63121;51.458;-0.110;2023-07-20T05:30:39;101478.66;;;20.71;48.31
74615;BME280;63121;51.458;-0.110;2023-07-20T05:33:05;101472.69;;;20.88;47.49
74615;BME280;63121;51.458;-0.110;2023-07-20T05:35:30;101469.94;;;20.91;47.37
74615;BME280;63121;51.458;-0.110;2023-07-20T05:37:56;101468.41;;;20.65;47.98
74615;BME280;63121;51.458;-0.110;2023-07-20T05:40:21;101468.75;;;20.98;47.47
74615;BME280;63121;51.458;-0.110;2023-07-20T05:42:48;101467.44;;;20.88;47.41
74615;BME280;63121;51.458;-0.110;2023-07-20T05:45:16;101475.78;;;20.98;47.25
74615;BME280;63121;51.458;-0.110;2023-07-20T05:47:42;101468.09;;;21.14;46.75
74615;BME280;63121;51.458;-0.110;2023-07-20T05:50:08;101472.72;;;21.08;47.68
74615;BME280;63121;51.458;-0.110;2023-07-20T05:52:34;101469.22;;;21.08;46.77
74615;BME280;63121;51.458;-0.110;2023-07-20T05:54:59;101466.34;;;20.94;47.42
74615;BME280;63121;51.458;-0.110;2023-07-20T05:57:25;101470.41;;;21.01;46.61
74615;BME280;63121;51.458;-0.110;2023-07-20T05:59:50;101471.72;;;20.90;47.30
74615;BME280;63121;51.458;-0.110;2023-07-20T06:02:16;101474.53;;;21.06;46.74
74615;BME280;63121;51.458;-0.110;2023-07-20T06:04:42;101472.03;;;21.44;45.93
74615;BME280;63121;51.458;-0.110;2023-07-20T06:07:07;101473.34;;;21.34;45.80
74615;BME280;63121;51.458;-0.110;2023-07-20T06:09:33;101480.31;;;21.75;45.41
74615;BME280;63121;51.458;-0.110;2023-07-20T06:11:58;101482.13;;;21.33;46.46
74615;BME280;63121;51.458;-0.110;2023-07-20T06:14:24;101481.28;;;21.32;46.05
74615;BME280;63121;51.458;-0.110;2023-07-20T06:16:49;101479.53;;;21.13;46.49
74615;BME280;63121;51.458;-0.110;2023-07-20T06:19:15;101479.66;;;21.30;46.27
74615;BME280;63121;51.458;-0.110;2023-07-20T06:21:40;101472.34;;;21.16;46.22
74615;BME280;63121;51.458;-0.110;2023-07-20T06:24:06;101479.13;;;21.22;46.36
74615;BME280;63121;51.458;-0.110;2023-07-20T06:26:31;101483.00;;;21.13;46.22
74615;BME280;63121;51.458;-0.110;2023-07-20T06:29:03;101484.38;;;21.01;46.66
74615;BME280;63121;51.458;-0.110;2023-07-20T06:31:28;101489.00;;;20.74;47.22
74615;BME280;63121;51.458;-0.110;2023-07-20T06:33:54;101483.78;;;21.15;46.66
74615;BME280;63121;51.458;-0.110;2023-07-20T06:36:19;101486.88;;;21.04;46.76
74615;BME280;63121;51.458;-0.110;2023-07-20T06:38:45;101483.41;;;20.83;46.91
74615;BME280;63121;51.458;-0.110;2023-07-20T06:41:10;101484.75;;;20.71;47.21
74615;BME280;63121;51.458;-0.110;2023-07-20T06:43:35;101487.00;;;20.81;47.68
74615;BME280;63121;51.458;-0.110;2023-07-20T06:46:01;101494.63;;;21.28;45.84
74615;BME280;63121;51.458;-0.110;2023-07-20T06:48:27;101494.56;;;21.69;45.23
74615;BME280;63121;51.458;-0.110;2023-07-20T06:50:52;101486.19;;;21.40;46.17
74615;BME280;63121;51.458;-0.110;2023-07-20T06:53:19;101491.53;;;21.59;45.09
74615;BME280;63121;51.458;-0.110;2023-07-20T06:55:44;101487.63;;;22.06;44.26
74615;BME280;63121;51.458;-0.110;2023-07-20T06:58:11;101493.00;;;22.03;44.06
74615;BME280;63121;51.458;-0.110;2023-07-20T07:00:36;101491.38;;;22.38;43.30
74615;BME280;63121;51.458;-0.110;2023-07-20T07:03:02;101492.06;;;22.78;42.72
74615;BME280;63121;51.458;-0.110;2023-07-20T07:05:28;101491.34;;;22.57;42.91
74615;BME280;63121;51.458;-0.110;2023-07-20T07:07:53;101494.84;;;22.20;43.58
74615;BME280;63121;51.458;-0.110;2023-07-20T07:10:18;101492.59;;;22.12;43.40
74615;BME280;63121;51.458;-0.110;2023-07-20T07:12:44;101496.63;;;22.38;43.03
74615;BME280;63121;51.458;-0.110;2023-07-20T07:15:10;101488.91;;;22.16;43.99
74615;BME280;63121;51.458;-0.110;2023-07-20T07:17:36;101491.41;;;22.56;43.21
74615;BME280;63121;51.458;-0.110;2023-07-20T07:20:01;101485.22;;;22.57;43.06
74615;BME280;63121;51.458;-0.110;2023-07-20T07:22:27;101490.72;;;22.52;43.34
74615;BME280;63121;51.458;-0.110;2023-07-20T07:24:54;101491.69;;;22.86;42.36
74615;BME280;63121;51.458;-0.110;2023-07-20T07:27:20;101484.56;;;22.88;42.70
74615;BME280;63121;51.458;-0.110;2023-07-20T07:29:45;101491.75;;;22.84;42.57
74615;BME280;63121;51.458;-0.110;2023-07-20T07:32:11;101488.06;;;23.06;41.24
74615;BME280;63121;51.458;-0.110;2023-07-20T07:34:37;101487.81;;;23.10;41.50
74615;BME280;63121;51.458;-0.110;2023-07-20T07:37:04;101488.50;;;22.97;42.60
74615;BME280;63121;51.458;-0.110;2023-07-20T07:39:29;101486.34;;;23.05;41.76
74615;BME280;63121;51.458;-0.110;2023-07-20T07:41:55;101483.31;;;23.30;41.52
74615;BME280;63121;51.458;-0.110;2023-07-20T07:44:21;101485.81;;;23.16;41.28
74615;BME280;63121;51.458;-0.110;2023-07-20T07:46:46;101488.25;;;23.36;43.22
74615;BME280;63121;51.458;-0.110;2023-07-20T07:49:12;101483.78;;;23.87;42.19
74615;BME280;63121;51.458;-0.110;2023-07-20T07:51:37;101486.69;;;23.65;40.73
74615;BME280;63121;51.458;-0.110;2023-07-20T07:54:03;101480.63;;;23.47;40.92
74615;BME280;63121;51.458;-0.110;2023-07-20T07:56:29;101476.78;;;23.86;39.40
74615;BME280;63121;51.458;-0.110;2023-07-20T07:58:54;101472.38;;;23.87;39.61
74615;BME280;63121;51.458;-0.110;2023-07-20T08:01:19;101474.81;;;23.74;39.66
74615;BME280;63121;51.458;-0.110;2023-07-20T08:03:45;101476.63;;;23.23;40.79
74615;BME280;63121;51.458;-0.110;2023-07-20T08:06:13;101474.44;;;23.64;39.38
74615;BME280;63121;51.458;-0.110;2023-07-20T08:08:38;101479.97;;;23.60;39.03
74615;BME280;63121;51.458;-0.110;2023-07-20T08:11:04;101475.28;;;23.49;40.36
74615;BME280;63121;51.458;-0.110;2023-07-20T08:13:30;101468.38;;;23.46;40.19
74615;BME280;63121;51.458;-0.110;2023-07-20T08:15:55;101468.84;;;23.70;39.16
74615;BME280;63121;51.458;-0.110;2023-07-20T08:18:20;101464.69;;;23.66;39.54
74615;BME280;63121;51.458;-0.110;2023-07-20T08:20:47;101470.88;;;23.65;39.26
74615;BME280;63121;51.458;-0.110;2023-07-20T08:23:13;101472.31;;;23.55;39.72
74615;BME280;63121;51.458;-0.110;2023-07-20T08:25:39;101463.28;;;24.08;38.75
74615;BME280;63121;51.458;-0.110;2023-07-20T08:28:14;101460.75;;;23.91;38.22
74615;BME280;63121;51.458;-0.110;2023-07-20T08:30:40;101460.53;;;24.26;37.50
74615;BME280;63121;51.458;-0.110;2023-07-20T08:33:06;101453.94;;;23.69;38.95
74615;BME280;63121;51.458;-0.110;2023-07-20T08:35:32;101460.56;;;23.94;39.21
74615;BME280;63121;51.458;-0.110;2023-07-20T08:37:57;101461.47;;;24.09;38.10
74615;BME280;63121;51.458;-0.110;2023-07-20T08:40:22;101464.28;;;24.22;38.55
74615;BME280;63121;51.458;-0.110;2023-07-20T08:42:48;101473.22;;;23.87;39.21
74615;BME280;63121;51.458;-0.110;2023-07-20T08:45:16;101474.91;;;23.88;37.71
74615;BME280;63121;51.458;-0.110;2023-07-20T08:47:43;101469.09;;;23.99;37.82
74615;BME280;63121;51.458;-0.110;2023-07-20T08:50:11;101452.25;;;24.78;36.96
74615;BME280;63121;51.458;-0.110;2023-07-20T08:52:37;101459.41;;;24.46;36.28
74615;BME280;63121;51.458;-0.110;2023-07-20T08:55:03;101462.28;;;24.41;36.80
74615;BME280;63121;51.458;-0.110;2023-07-20T08:57:31;101470.28;;;24.55;38.10
74615;BME280;63121;51.458;-0.110;2023-07-20T08:59:59;101462.63;;;24.81;36.44
74615;BME280;63121;51.458;-0.110;2023-07-20T09:02:26;101469.81;;;24.49;35.85
74615;BME280;63121;51.458;-0.110;2023-07-20T09:04:52;101466.91;;;24.38;36.60
74615;BME280;63121;51.458;-0.110;2023-07-20T09:07:18;101464.09;;;24.41;34.04
74615;BME280;63121;51.458;-0.110;2023-07-20T09:09:45;101457.13;;;24.40;36.85
74615;BME280;63121;51.458;-0.110;2023-07-20T09:12:14;101460.50;;;24.58;35.24
74615;BME280;63121;51.458;-0.110;2023-07-20T09:14:43;101462.25;;;25.18;34.21
74615;BME280;63121;51.458;-0.110;2023-07-20T09:17:12;101452.25;;;24.78;36.92
74615;BME280;63121;51.458;-0.110;2023-07-20T09:19:38;101455.03;;;24.91;34.96
74615;BME280;63121;51.458;-0.110;2023-07-20T09:22:05;101451.00;;;25.57;33.39
74615;BME280;63121;51.458;-0.110;2023-07-20T09:24:31;101464.94;;;26.02;35.67
74615;BME280;63121;51.458;-0.110;2023-07-20T09:27:01;101465.25;;;26.25;31.65
74615;BME280;63121;51.458;-0.110;2023-07-20T09:29:29;101450.44;;;25.81;35.75
74615;BME280;63121;51.458;-0.110;2023-07-20T09:31:59;101452.50;;;26.44;32.57
74615;BME280;63121;51.458;-0.110;2023-07-20T09:34:25;101455.22;;;26.30;31.98
74615;BME280;63121;51.458;-0.110;2023-07-20T09:36:51;101456.84;;;25.91;33.40
74615;BME280;63121;51.458;-0.110;2023-07-20T09:39:17;101450.06;;;26.14;32.52
74615;BME280;63121;51.458;-0.110;2023-07-20T09:41:42;101447.41;;;26.41;33.38
74615;BME280;63121;51.458;-0.110;2023-07-20T09:44:08;101449.44;;;26.38;32.98
74615;BME280;63121;51.458;-0.110;2023-07-20T09:46:48;101449.94;;;26.70;31.29
74615;BME280;63121;51.458;-0.110;2023-07-20T09:49:14;101446.25;;;26.85;32.15
74615;BME280;63121;51.458;-0.110;2023-07-20T09:51:40;101456.84;;;25.91;31.37
74615;BME280;63121;51.458;-0.110;2023-07-20T09:54:07;101449.69;;;25.79;31.32
74615;BME280;63121;51.458;-0.110;2023-07-20T09:56:34;101443.97;;;25.99;30.99
74615;BME280;63121;51.458;-0.110;2023-07-20T09:59:00;101438.63;;;26.41;31.58
74615;BME280;63121;51.458;-0.110;2023-07-20T10:01:26;101439.97;;;26.61;30.75
74615;BME280;63121;51.458;-0.110;2023-07-20T10:03:54;101436.97;;;26.52;31.00
74615;BME280;63121;51.458;-0.110;2023-07-20T10:06:24;101426.63;;;26.88;30.26
74615;BME280;63121;51.458;-0.110;2023-07-20T10:08:53;101424.19;;;27.10;31.11
74615;BME280;63121;51.458;-0.110;2023-07-20T10:11:21;101425.09;;;25.91;31.87
74615;BME280;63121;51.458;-0.110;2023-07-20T10:13:51;101430.03;;;26.37;31.40
74615;BME280;63121;51.458;-0.110;2023-07-20T10:16:29;101423.78;;;27.16;29.81
74615;BME280;63121;51.458;-0.110;2023-07-20T10:21:25;101429.91;;;27.43;29.78
74615;BME280;63121;51.458;-0.110;2023-07-20T10:23:51;101421.47;;;27.62;29.07
74615;BME280;63121;51.458;-0.110;2023-07-20T10:26:16;101414.75;;;27.82;28.92
74615;BME280;63121;51.458;-0.110;2023-07-20T10:28:42;101409.28;;;27.22;30.38
74615;BME280;63121;51.458;-0.110;2023-07-20T10:31:08;101422.94;;;26.90;30.46
74615;BME280;63121;51.458;-0.110;2023-07-20T10:33:36;101406.94;;;25.99;31.65
74615;BME280;63121;51.458;-0.110;2023-07-20T10:36:03;101400.84;;;26.11;32.15
74615;BME280;63121;51.458;-0.110;2023-07-20T10:38:54;101413.09;;;26.00;32.03
74615;BME280;63121;51.458;-0.110;2023-07-20T10:41:21;101408.19;;;26.21;31.09
74615;BME280;63121;51.458;-0.110;2023-07-20T10:43:48;101404.84;;;26.04;30.67
74615;BME280;63121;51.458;-0.110;2023-07-20T10:46:14;101413.19;;;25.84;31.20
74615;BME280;63121;51.458;-0.110;2023-07-20T10:49:01;101403.84;;;27.11;29.70
74615;BME280;63121;51.458;-0.110;2023-07-20T10:51:27;101399.38;;;27.50;29.11
74615;BME280;63121;51.458;-0.110;2023-07-20T10:53:55;101403.50;;;27.54;28.55
74615;BME280;63121;51.458;-0.110;2023-07-20T10:56:23;101388.06;;;27.59;28.98
74615;BME280;63121;51.458;-0.110;2023-07-20T10:58:48;101394.78;;;27.52;29.64
74615;BME280;63121;51.458;-0.110;2023-07-20T11:01:16;101398.44;;;27.00;30.20
74615;BME280;63121;51.458;-0.110;2023-07-20T11:03:42;101389.78;;;26.72;30.29
74615;BME280;63121;51.458;-0.110;2023-07-20T11:08:49;101393.44;;;26.04;30.15
74615;BME280;63121;51.458;-0.110;2023-07-20T11:11:28;101390.38;;;26.63;29.21
74615;BME280;63121;51.458;-0.110;2023-07-20T11:13:56;101388.91;;;27.23;29.25
74615;BME280;63121;51.458;-0.110;2023-07-20T11:16:52;101383.59;;;27.10;29.28
74615;BME280;63121;51.458;-0.110;2023-07-20T11:19:22;101379.81;;;26.75;29.35
74615;BME280;63121;51.458;-0.110;2023-07-20T11:21:57;101389.81;;;26.05;30.73
74615;BME280;63121;51.458;-0.110;2023-07-20T11:24:23;101381.53;;;25.82;30.39
74615;BME280;63121;51.458;-0.110;2023-07-20T11:26:50;101384.88;;;25.71;30.17
74615;BME280;63121;51.458;-0.110;2023-07-20T11:29:17;101386.81;;;26.24;29.01
74615;BME280;63121;51.458;-0.110;2023-07-20T11:31:44;101375.09;;;26.53;29.23
74615;BME280;63121;51.458;-0.110;2023-07-20T11:34:20;101380.50;;;26.12;29.05
74615;BME280;63121;51.458;-0.110;2023-07-20T11:36:48;101374.25;;;26.40;30.24
74615;BME280;63121;51.458;-0.110;2023-07-20T11:39:15;101370.06;;;26.89;29.64
74615;BME280;63121;51.458;-0.110;2023-07-20T11:41:46;101365.97;;;27.47;28.30
74615;BME280;63121;51.458;-0.110;2023-07-20T11:44:12;101370.97;;;27.39;27.72
74615;BME280;63121;51.458;-0.110;2023-07-20T11:46:39;101366.66;;;27.62;26.86
74615;BME280;63121;51.458;-0.110;2023-07-20T11:49:05;101359.22;;;27.17;27.16
74615;BME280;63121;51.458;-0.110;2023-07-20T11:51:31;101364.34;;;26.69;29.28
74615;BME280;63121;51.458;-0.110;2023-07-20T11:53:57;101355.00;;;26.89;29.12
74615;BME280;63121;51.458;-0.110;2023-07-20T11:56:24;101362.19;;;26.49;30.08
74615;BME280;63121;51.458;-0.110;2023-07-20T11:58:50;101366.22;;;26.54;29.39
74615;BME280;63121;51.458;-0.110;2023-07-20T12:01:17;101364.44;;;26.93;28.91
74615;BME280;63121;51.458;-0.110;2023-07-20T12:03:43;101352.84;;;27.20;28.30
74615;BME280;63121;51.458;-0.110;2023-07-20T12:06:09;101358.16;;;27.20;27.80
74615;BME280;63121;51.458;-0.110;2023-07-20T12:08:38;101337.28;;;26.39;28.70
74615;BME280;63121;51.458;-0.110;2023-07-20T12:11:04;101354.78;;;27.05;28.22
74615;BME280;63121;51.458;-0.110;2023-07-20T12:16:13;101350.97;;;26.71;29.77
74615;BME280;63121;51.458;-0.110;2023-07-20T12:18:39;101346.69;;;27.07;27.84
74615;BME280;63121;51.458;-0.110;2023-07-20T12:21:06;101335.47;;;27.29;27.03
74615;BME280;63121;51.458;-0.110;2023-07-20T12:23:37;101331.09;;;27.65;27.73
74615;BME280;63121;51.458;-0.110;2023-07-20T12:26:03;101335.19;;;27.45;27.55
74615;BME280;63121;51.458;-0.110;2023-07-20T12:28:31;101334.25;;;27.46;27.04
74615;BME280;63121;51.458;-0.110;2023-07-20T12:30:56;101326.69;;;27.52;27.28
74615;BME280;63121;51.458;-0.110;2023-07-20T12:33:22;101336.25;;;26.92;27.03
74615;BME280;63121;51.458;-0.110;2023-07-20T12:35:48;101334.63;;;27.28;27.08
74615;BME280;63121;51.458;-0.110;2023-07-20T12:38:14;101333.66;;;27.29;26.61
74615;BME280;63121;51.458;-0.110;2023-07-20T12:40:41;101320.94;;;27.58;25.93
74615;BME280;63121;51.458;-0.110;2023-07-20T12:43:06;101332.97;;;27.38;26.98
74615;BME280;63121;51.458;-0.110;2023-07-20T12:45:32;101321.25;;;27.78;26.46
74615;BME280;63121;51.458;-0.110;2023-07-20T12:47:58;101321.94;;;27.69;26.94
74615;BME280;63121;51.458;-0.110;2023-07-20T12:50:24;101325.38;;;27.34;26.57
74615;BME280;63121;51.458;-0.110;2023-07-20T12:52:50;101316.72;;;28.04;25.53
74615;BME280;63121;51.458;-0.110;2023-07-20T12:55:15;101318.09;;;28.21;24.31
74615;BME280;63121;51.458;-0.110;2023-07-20T12:57:41;101308.75;;;28.15;24.78